Time;durP1;ratioP1;P1;durP2;ratioP2;P2;SDS_P1;SDS_P2;PMS_P1;PMS_P2;Temp;Humidity;BMP_temperature;BMP_pressure;BME280_temperature;BME280_humidity;BME280_pressure;Samples;Min_cycle;Max_cycle;Signal;HPM_P1;HPM_P2
2022/09/18 00:01:50;;;;;;;;;;;;;;;;;;5075294;28;1546;-72
2022/09/18 00:04:17;;;;;;;;;;;;;;;;;;5084161;28;1478;-72
2022/09/18 00:06:43;;;;;;;;;;;;;;;;;;5093677;28;1118;-72
2022/09/18 00:09:10;;;;;;;;;;;;;;;;;;5093420;28;1071;-72
2022/09/18 00:11:37;;;;;;;;;;;;;;;;;;5093269;28;1380;-72
2022/09/18 00:14:04;;;;;;;;;;;;;;;;;;5083818;28;1975;-70
2022/09/18 00:16:30;;;;;;;;;;;;;;;;;;5087609;28;1432;-72
2022/09/18 00:18:58;;;;;;;;;;;;;;;;;;5081249;28;1353;-73
2022/09/18 00:21:24;;;;;;;;;;;;;;;;;;5092891;28;1404;-73
2022/09/18 00:23:51;;;;;;;;;;;;;;;;;;5084455;28;1392;-73
2022/09/18 00:26:17;;;;;;;;;;;;;;;;;;5081761;28;1373;-72
2022/09/18 00:28:43;;;;;;;;;;;;;;;;;;5083703;28;1478;-72
2022/09/18 00:31:10;;;;;;;;;;;;;;;;;;5074687;28;1388;-72
2022/09/18 00:33:38;;;;;;;;;;;;;;;;;;5085834;28;1369;-72
2022/09/18 00:36:06;;;;;;;;;;;;;;;;;;5090372;28;1918;-72
2022/09/18 00:38:32;;;;;;;;;;;;;;;;;;5074880;28;1328;-72
2022/09/18 00:40:59;;;;;;;;;;;;;;;;;;5092337;28;1310;-72
2022/09/18 00:43:25;;;;;;;;;;;;;;;;;;5086067;28;1522;-72
2022/09/18 00:45:52;;;;;;;;;;;;;;;;;;5074726;28;1201;-72
2022/09/18 00:48:18;;;;;;;;;;;;;;;;;;5074389;28;1222;-72
2022/09/18 00:50:45;;;;;;;;;;;;;;;;;;5074433;28;1402;-72
2022/09/18 00:53:12;;;;;;;;;;;;;;;;;;5088030;28;1489;-72
2022/09/18 00:55:39;;;;;;;;;;;;;;;;;;5074521;28;1930;-72
2022/09/18 00:58:05;;;;;;;;;;;;;;;;;;5090031;28;1380;-71
2022/09/18 01:00:31;;;;;;;;;;;;;;;;;;5081124;28;1140;-72
2022/09/18 01:03:01;;;;;;;;;;;;;;;;;;5077577;28;1436;-72
2022/09/18 01:05:28;;;;;;;;;;;;;;;;;;5066842;28;1055;-72
2022/09/18 01:07:57;;;;;;;;;;;;;;;;;;5065252;28;1611;-71
2022/09/18 01:10:29;;;;;;;;;;;;;;;;;;5066722;28;1181;-72
2022/09/18 01:12:55;;;;;;;;;;;;;;;;;;5091148;28;1419;-72
2022/09/18 01:15:23;;;;;;;;;;;;;;;;;;5084079;28;1922;-71
2022/09/18 01:17:51;;;;;;;;;;;;;;;;;;5065630;28;1408;-71
2022/09/18 01:20:25;;;;;;;;;;;;;;;;;;5090369;28;1409;-71
2022/09/18 01:22:52;;;;;;;;;;;;;;;;;;5065502;28;1418;-72
2022/09/18 01:25:21;;;;;;;;;;;;;;;;;;5073699;28;1308;-71
2022/09/18 01:27:59;;;;;;;;;;;;;;;;;;5073954;28;1261;-72
2022/09/18 01:30:26;;;;;;;;;;;;;;;;;;5064570;28;1588;-71
2022/09/18 01:32:54;;;;;;;;;;;;;;;;;;5091595;28;1347;-72
2022/09/18 01:35:21;;;;;;;;;;;;;;;;;;5073879;28;1938;-72
2022/09/18 01:37:48;;;;;;;;;;;;;;;;;;5073603;28;1302;-71
2022/09/18 01:40:15;;;;;;;;;;;;;;;;;;5064734;28;1433;-72
2022/09/18 01:42:42;;;;;;;;;;;;;;;;;;5074132;28;1339;-71
2022/09/18 01:45:10;;;;;;;;;;;;;;;;;;5091824;28;864;-71
2022/09/18 01:47:38;;;;;;;;;;;;;;;;;;5090651;28;1290;-71
2022/09/18 01:50:05;;;;;;;;;;;;;;;;;;5068594;28;1438;-72
2022/09/18 01:52:33;;;;;;;;;;;;;;;;;;5066603;28;1425;-72
2022/09/18 01:55:00;;;;;;;;;;;;;;;;;;5090323;28;1975;-71
2022/09/18 01:57:27;;;;;;;;;;;;;;;;;;5090579;28;1634;-72
2022/09/18 01:59:55;;;;;;;;;;;;;;;;;;5064303;28;1427;-71
2022/09/18 02:02:24;;;;;;;;;;;;;;;;;;5072334;28;2112;-71
2022/09/18 02:04:51;;;;;;;;;;;;;;;;;;5073552;28;1527;-72
2022/09/18 02:07:19;;;;;;;;;;;;;;;;;;5090509;28;1387;-71
2022/09/18 02:09:46;;;;;;;;;;;;;;;;;;5065129;28;1232;-72
2022/09/18 02:12:14;;;;;;;;;;;;;;;;;;5064186;28;1555;-72
2022/09/18 02:14:41;;;;;;;;;;;;;;;;;;5073333;28;1910;-71
2022/09/18 02:17:28;;;;;;;;;;;;;;;;;;5072259;28;1459;-71
2022/09/18 02:19:56;;;;;;;;;;;;;;;;;;5064688;28;1237;-71
2022/09/18 02:22:23;;;;;;;;;;;;;;;;;;5052864;28;1461;-71
2022/09/18 02:24:50;;;;;;;;;;;;;;;;;;5070022;28;1377;-71
2022/09/18 02:27:17;;;;;;;;;;;;;;;;;;5069568;28;1459;-72
2022/09/18 02:29:44;;;;;;;;;;;;;;;;;;5082308;28;1432;-72
2022/09/18 02:32:10;;;;;;;;;;;;;;;;;;5069548;28;1423;-71
2022/09/18 02:34:37;;;;;;;;;;;;;;;;;;5060539;28;1898;-70
2022/09/18 02:37:10;;;;;;;;;;;;;;;;;;5088935;28;1225;-72
2022/09/18 02:39:43;;;;;;;;;;;;;;;;;;5088811;28;1728;-71
2022/09/18 02:42:14;;;;;;;;;;;;;;;;;;5072540;28;1386;-71
2022/09/18 02:44:42;;;;;;;;;;;;;;;;;;5073343;28;1190;-72
2022/09/18 02:47:10;;;;;;;;;;;;;;;;;;5071934;28;1483;-71
2022/09/18 02:49:41;;;;;;;;;;;;;;;;;;5068064;28;1546;-71
2022/09/18 02:52:08;;;;;;;;;;;;;;;;;;5076345;28;1454;-72
2022/09/18 02:54:37;;;;;;;;;;;;;;;;;;5093783;28;1905;-72
2022/09/18 02:57:03;;;;;;;;;;;;;;;;;;5086122;28;1450;-72
2022/09/18 02:59:31;;;;;;;;;;;;;;;;;;5076559;28;1461;-71
2022/09/18 03:01:57;;;;;;;;;;;;;;;;;;5067014;28;1619;-72
2022/09/18 03:04:25;;;;;;;;;;;;;;;;;;5066979;28;1751;-72
2022/09/18 03:07:06;;;;;;;;;;;;;;;;;;5076414;28;1197;-71
2022/09/18 03:09:39;;;;;;;;;;;;;;;;;;5076597;28;1271;-71
2022/09/18 03:12:05;;;;;;;;;;;;;;;;;;5094415;28;1393;-71
2022/09/18 03:14:37;;;;;;;;;;;;;;;;;;5067291;28;1910;-71
2022/09/18 03:17:03;;;;;;;;;;;;;;;;;;5076246;28;1459;-71
2022/09/18 03:19:31;;;;;;;;;;;;;;;;;;5076302;28;1151;-71
2022/09/18 03:21:58;;;;;;;;;;;;;;;;;;5075832;28;1633;-71
2022/09/18 03:24:28;;;;;;;;;;;;;;;;;;5085514;28;1479;-71
2022/09/18 03:26:54;;;;;;;;;;;;;;;;;;5076150;28;1449;-72
2022/09/18 03:29:23;;;;;;;;;;;;;;;;;;5071487;28;1585;-71
2022/09/18 03:31:50;;;;;;;;;;;;;;;;;;5071594;28;1561;-72
2022/09/18 03:34:17;;;;;;;;;;;;;;;;;;5067772;28;1407;-71
2022/09/18 03:36:45;;;;;;;;;;;;;;;;;;5070236;28;1981;-71
2022/09/18 03:39:12;;;;;;;;;;;;;;;;;;5067520;28;1443;-71
2022/09/18 03:41:39;;;;;;;;;;;;;;;;;;5093657;28;1325;-71
2022/09/18 03:44:07;;;;;;;;;;;;;;;;;;5066395;28;1460;-71
2022/09/18 03:46:38;;;;;;;;;;;;;;;;;;5075622;22;1905;-73
2022/09/18 03:49:05;;;;;;;;;;;;;;;;;;4954775;28;1483;-72
2022/09/18 03:51:33;;;;;;;;;;;;;;;;;;4970911;28;1602;-73
2022/09/18 03:54:00;;;;;;;;;;;;;;;;;;4995897;28;1325;-73
2022/09/18 03:56:47;;;;;;;;;;;;;;;;;;5028664;28;1910;-73
2022/09/18 03:59:37;;;;;;;;;;;;;;;;;;5019140;28;1316;-73
2022/09/18 04:02:22;;;;;;;;;;;;;;;;;;4971593;28;1478;-72
2022/09/18 04:05:11;;;;;;;;;;;;;;;;;;4968796;28;1355;-73
2022/09/18 04:07:56;;;;;;;;;;;;;;;;;;4969215;28;1434;-73
2022/09/18 04:10:46;;;;;;;;;;;;;;;;;;4972899;28;1138;-72
2022/09/18 04:13:15;;;;;;;;;;;;;;;;;;5012221;28;1425;-73
2022/09/18 04:15:43;;;;;;;;;;;;;;;;;;4954809;28;1906;-72
2022/09/18 04:18:10;;;;;;;;;;;;;;;;;;4971659;28;1391;-73
2022/09/18 04:20:36;;;;;;;;;;;;;;;;;;4954061;28;1408;-72
2022/09/18 04:23:05;;;;;;;;;;;;;;;;;;4946232;28;1448;-73
2022/09/18 04:25:33;;;;;;;;;;;;;;;;;;4954924;28;1191;-73
2022/09/18 04:27:59;;;;;;;;;;;;;;;;;;5055630;28;1354;-73
2022/09/18 04:30:27;;;;;;;;;;;;;;;;;;5055337;28;1459;-73
2022/09/18 04:32:53;;;;;;;;;;;;;;;;;;5046019;28;1470;-73
2022/09/18 04:35:20;;;;;;;;;;;;;;;;;;4953989;28;1976;-73
2022/09/18 04:37:46;;;;;;;;;;;;;;;;;;4962575;28;1433;-73
2022/09/18 04:40:12;;;;;;;;;;;;;;;;;;4971569;28;1174;-73
2022/09/18 04:42:40;;;;;;;;;;;;;;;;;;5047550;28;1449;-73
2022/09/18 04:45:07;;;;;;;;;;;;;;;;;;5042714;28;1431;-73
2022/09/18 04:47:35;;;;;;;;;;;;;;;;;;4952265;28;1316;-73
2022/09/18 04:50:02;;;;;;;;;;;;;;;;;;4958978;28;1740;-72
2022/09/18 04:52:29;;;;;;;;;;;;;;;;;;4956827;28;1591;-73
2022/09/18 04:54:56;;;;;;;;;;;;;;;;;;4961545;28;1459;-71
2022/09/18 04:57:23;;;;;;;;;;;;;;;;;;4951658;28;1919;-73
2022/09/18 04:59:49;;;;;;;;;;;;;;;;;;4968552;28;1418;-73
2022/09/18 05:02:16;;;;;;;;;;;;;;;;;;4981755;28;1486;-73
2022/09/18 05:04:43;;;;;;;;;;;;;;;;;;4952281;28;1450;-73
2022/09/18 05:07:19;;;;;;;;;;;;;;;;;;4932477;28;1500;-72
2022/09/18 05:09:46;;;;;;;;;;;;;;;;;;4938412;28;1412;-73
2022/09/18 05:12:12;;;;;;;;;;;;;;;;;;5004122;28;1441;-72
2022/09/18 05:14:40;;;;;;;;;;;;;;;;;;4948923;28;1183;-73
2022/09/18 05:17:08;;;;;;;;;;;;;;;;;;4949904;28;1907;-73
2022/09/18 05:19:37;;;;;;;;;;;;;;;;;;4951309;28;1400;-74
2022/09/18 05:22:10;;;;;;;;;;;;;;;;;;4998086;28;1290;-73
2022/09/18 05:24:41;;;;;;;;;;;;;;;;;;5016854;28;1197;-73
2022/09/18 05:27:07;;;;;;;;;;;;;;;;;;5016860;28;1320;-73
2022/09/18 05:29:34;;;;;;;;;;;;;;;;;;5006092;28;1603;-73
2022/09/18 05:32:09;;;;;;;;;;;;;;;;;;4944462;28;1491;-73
2022/09/18 05:34:36;;;;;;;;;;;;;;;;;;5049290;28;1637;-73
2022/09/18 05:37:02;;;;;;;;;;;;;;;;;;4950994;28;1923;-73
2022/09/18 05:39:30;;;;;;;;;;;;;;;;;;4954769;28;1566;-72
2022/09/18 05:42:00;;;;;;;;;;;;;;;;;;4943816;28;1419;-74
2022/09/18 05:44:26;;;;;;;;;;;;;;;;;;5053345;28;1510;-73
2022/09/18 05:46:52;;;;;;;;;;;;;;;;;;5052931;28;1394;-74
2022/09/18 05:49:18;;;;;;;;;;;;;;;;;;4948618;28;1436;-74
2022/09/18 05:51:45;;;;;;;;;;;;;;;;;;4951753;28;1488;-74
2022/09/18 05:54:13;;;;;;;;;;;;;;;;;;4967596;28;1251;-74
2022/09/18 05:56:44;;;;;;;;;;;;;;;;;;4968707;28;1918;-74
2022/09/18 05:59:11;;;;;;;;;;;;;;;;;;4967286;28;1389;-73
2022/09/18 06:01:37;;;;;;;;;;;;;;;;;;4950551;28;1384;-74
2022/09/18 06:04:26;;;;;;;;;;;;;;;;;;4943448;28;1407;-73
2022/09/18 06:07:00;;;;;;;;;;;;;;;;;;5035611;28;1424;-74
2022/09/18 06:09:27;;;;;;;;;;;;;;;;;;4982173;28;1476;-74
2022/09/18 06:11:55;;;;;;;;;;;;;;;;;;4948957;28;1730;-74
2022/09/18 06:14:22;;;;;;;;;;;;;;;;;;4944630;28;1419;-74
2022/09/18 06:16:48;;;;;;;;;;;;;;;;;;4968780;28;1914;-73
2022/09/18 06:19:14;;;;;;;;;;;;;;;;;;4968680;28;1340;-73
2022/09/18 06:21:43;;;;;;;;;;;;;;;;;;4968003;28;1436;-73
2022/09/18 06:24:15;;;;;;;;;;;;;;;;;;4970523;28;1461;-74
2022/09/18 06:26:49;;;;;;;;;;;;;;;;;;4971701;28;1466;-73
2022/09/18 06:29:16;;;;;;;;;;;;;;;;;;4971857;28;1148;-73
2022/09/18 06:31:50;;;;;;;;;;;;;;;;;;4971455;28;1332;-73
2022/09/18 06:34:24;;;;;;;;;;;;;;;;;;4971504;28;1550;-74
2022/09/18 06:36:53;;;;;;;;;;;;;;;;;;4973176;28;1976;-74
2022/09/18 06:39:28;;;;;;;;;;;;;;;;;;4971652;28;1289;-74
2022/09/18 06:41:58;;;;;;;;;;;;;;;;;;4969526;28;1424;-74
2022/09/18 06:44:46;;;;;;;;;;;;;;;;;;4972783;28;1211;-74
2022/09/18 06:47:14;;;;;;;;;;;;;;;;;;4955522;28;1387;-73
2022/09/18 06:49:44;;;;;;;;;;;;;;;;;;4955333;28;1321;-73
2022/09/18 06:52:10;;;;;;;;;;;;;;;;;;4955076;28;1530;-73
2022/09/18 06:54:37;;;;;;;;;;;;;;;;;;4955244;28;1398;-75
2022/09/18 06:57:04;;;;;;;;;;;;;;;;;;4955043;28;1968;-74
2022/09/18 06:59:31;;;;;;;;;;;;;;;;;;4971242;28;1209;-75
2022/09/18 07:01:58;;;;;;;;;;;;;;;;;;4954831;28;1529;-74
2022/09/18 07:04:45;;;;;;;;;;;;;;;;;;4955105;28;1773;-75
2022/09/18 07:07:12;;;;;;;;;;;;;;;;;;4955048;28;1512;-75
2022/09/18 07:09:38;;;;;;;;;;;;;;;;;;4955069;28;1472;-75
2022/09/18 07:12:20;;;;;;;;;;;;;;;;;;4954529;28;1731;-75
2022/09/18 07:14:51;;;;;;;;;;;;;;;;;;4954907;28;1499;-75
2022/09/18 07:17:20;;;;;;;;;;;;;;;;;;4958741;28;1939;-74
2022/09/18 07:19:48;;;;;;;;;;;;;;;;;;4990245;28;1037;-74
2022/09/18 07:22:16;;;;;;;;;;;;;;;;;;4973865;28;1617;-75
2022/09/18 07:24:46;;;;;;;;;;;;;;;;;;4974280;28;1171;-75
2022/09/18 07:27:12;;;;;;;;;;;;;;;;;;4973671;28;1345;-74
2022/09/18 07:29:41;;;;;;;;;;;;;;;;;;4989997;28;1215;-74
2022/09/18 07:32:08;;;;;;;;;;;;;;;;;;4971812;28;1347;-75
2022/09/18 07:34:36;;;;;;;;;;;;;;;;;;4972425;28;1158;-75
2022/09/18 07:37:02;;;;;;;;;;;;;;;;;;4971800;28;1926;-74
2022/09/18 07:39:29;;;;;;;;;;;;;;;;;;4988348;28;1407;-74
2022/09/18 07:42:14;;;;;;;;;;;;;;;;;;4990673;28;633;-74
2022/09/18 07:44:47;;;;;;;;;;;;;;;;;;4987908;28;1755;-74
2022/09/18 07:47:14;;;;;;;;;;;;;;;;;;4972302;28;1409;-75
2022/09/18 07:49:43;;;;;;;;;;;;;;;;;;4972889;28;1732;-75
2022/09/18 07:52:10;;;;;;;;;;;;;;;;;;4972150;28;1367;-75
2022/09/18 07:54:44;;;;;;;;;;;;;;;;;;4973888;28;1229;-75
2022/09/18 07:57:23;;;;;;;;;;;;;;;;;;4989133;28;1990;-75
2022/09/18 08:00:02;;;;;;;;;;;;;;;;;;4989438;28;1343;-75
2022/09/18 08:02:30;;;;;;;;;;;;;;;;;;4972314;28;951;-75
2022/09/18 08:04:58;;;;;;;;;;;;;;;;;;4988018;28;1347;-75
2022/09/18 08:07:34;;;;;;;;;;;;;;;;;;4971680;28;1451;-75
2022/09/18 08:10:13;;;;;;;;;;;;;;;;;;4988855;28;862;-75
2022/09/18 08:12:52;;;;;;;;;;;;;;;;;;4988645;28;1223;-74
2022/09/18 08:15:39;;;;;;;;;;;;;;;;;;4988771;28;1407;-75
2022/09/18 08:18:12;;;;;;;;;;;;;;;;;;4973388;28;1918;-73
2022/09/18 08:20:59;;;;;;;;;;;;;;;;;;4972972;28;1175;-73
2022/09/18 08:23:35;;;;;;;;;;;;;;;;;;4973154;28;1289;-72
2022/09/18 08:26:02;;;;;;;;;;;;;;;;;;4989368;28;1344;-75
2022/09/18 08:28:28;;;;;;;;;;;;;;;;;;4989512;28;1197;-75
2022/09/18 08:30:57;;;;;;;;;;;;;;;;;;4989366;28;1468;-75
2022/09/18 08:33:24;;;;;;;;;;;;;;;;;;4972888;28;1210;-75
2022/09/18 08:35:50;;;;;;;;;;;;;;;;;;4989518;28;1263;-74
2022/09/18 08:38:36;;;;;;;;;;;;;;;;;;4990615;28;1911;-75
2022/09/18 08:41:30;;;;;;;;;;;;;;;;;;4990414;28;718;-74
2022/09/18 08:44:00;;;;;;;;;;;;;;;;;;4959094;28;1670;-75
2022/09/18 08:46:29;;;;;;;;;;;;;;;;;;4952261;28;1479;-74
2022/09/18 08:48:58;;;;;;;;;;;;;;;;;;4962523;28;1703;-75
2022/09/18 08:51:27;;;;;;;;;;;;;;;;;;4969003;28;1396;-74
2022/09/18 08:53:57;;;;;;;;;;;;;;;;;;4957324;28;1527;-75
2022/09/18 08:56:45;;;;;;;;;;;;;;;;;;4933550;29;1919;-75
2022/09/18 08:59:18;;;;;;;;;;;;;;;;;;4934027;28;1296;-75
2022/09/18 09:01:47;;;;;;;;;;;;;;;;;;4950045;29;862;-76
2022/09/18 09:04:15;;;;;;;;;;;;;;;;;;4949541;28;1240;-76
2022/09/18 09:06:47;;;;;;;;;;;;;;;;;;4955696;28;1401;-75
2022/09/18 09:09:22;;;;;;;;;;;;;;;;;;4970199;28;803;-76
2022/09/18 09:11:53;;;;;;;;;;;;;;;;;;4952317;28;1379;-75
2022/09/18 09:14:22;;;;;;;;;;;;;;;;;;4968053;28;1416;-75
2022/09/18 09:16:50;;;;;;;;;;;;;;;;;;4952185;28;1915;-75
2022/09/18 09:19:24;;;;;;;;;;;;;;;;;;4970005;28;767;-75
2022/09/18 09:21:52;;;;;;;;;;;;;;;;;;4970268;28;842;-74
2022/09/18 09:24:25;;;;;;;;;;;;;;;;;;4953478;28;1451;-75
2022/09/18 09:27:06;;;;;;;;;;;;;;;;;;4969849;28;1545;-75
2022/09/18 09:29:43;;;;;;;;;;;;;;;;;;4967352;28;1699;-75
2022/09/18 09:32:38;;;;;;;;;;;;;;;;;;4959698;28;1434;-76
2022/09/18 09:35:17;;;;;;;;;;;;;;;;;;4966161;28;1415;-75
2022/09/18 09:38:19;;;;;;;;;;;;;;;;;;4980556;28;1907;-76
2022/09/18 09:40:46;;;;;;;;;;;;;;;;;;4968854;28;1466;-76
2022/09/18 09:43:16;;;;;;;;;;;;;;;;;;4963966;28;1384;-76
2022/09/18 09:45:43;;;;;;;;;;;;;;;;;;4952594;28;1435;-76
2022/09/18 09:48:11;;;;;;;;;;;;;;;;;;4988665;22;2502;-74
2022/09/18 09:50:43;;;;;;;;;;;;;;;;;;4969570;28;1143;-74
2022/09/18 09:53:10;;;;;;;;;;;;;;;;;;5047855;28;1405;-72
2022/09/18 09:55:38;;;;;;;;;;;;;;;;;;4946776;28;1206;-76
2022/09/18 09:58:10;;;;;;;;;;;;;;;;;;5049570;28;1914;-74
2022/09/18 10:00:40;;;;;;;;;;;;;;;;;;5006652;28;1492;-75
2022/09/18 10:03:32;;;;;;;;;;;;;;;;;;4951937;28;1250;-75
2022/09/18 10:06:02;;;;;;;;;;;;;;;;;;4930096;28;1523;-74
2022/09/18 10:08:30;;;;;;;;;;;;;;;;;;4995226;28;1586;-74
2022/09/18 10:10:57;;;;;;;;;;;;;;;;;;5015801;28;1192;-74
2022/09/18 10:13:26;;;;;;;;;;;;;;;;;;4972628;28;1483;-74
2022/09/18 10:15:56;;;;;;;;;;;;;;;;;;4952021;28;1104;-75
2022/09/18 10:18:25;;;;;;;;;;;;;;;;;;4951787;28;1915;-73
2022/09/18 10:20:53;;;;;;;;;;;;;;;;;;4963280;28;1316;-74
2022/09/18 10:23:21;;;;;;;;;;;;;;;;;;4951747;28;1360;-74
2022/09/18 10:25:49;;;;;;;;;;;;;;;;;;4934348;29;1535;-74
2022/09/18 10:28:16;;;;;;;;;;;;;;;;;;4929681;29;1419;-74
2022/09/18 10:30:58;;;;;;;;;;;;;;;;;;4931741;28;1425;-75
2022/09/18 10:33:30;;;;;;;;;;;;;;;;;;4929767;29;1443;-75
2022/09/18 10:35:59;;;;;;;;;;;;;;;;;;4941305;28;1688;-74
2022/09/18 10:38:31;;;;;;;;;;;;;;;;;;4945682;28;1980;-74
2022/09/18 10:41:11;;;;;;;;;;;;;;;;;;4930879;29;1363;-74
2022/09/18 10:43:39;;;;;;;;;;;;;;;;;;4948819;28;1523;-74
2022/09/18 10:46:07;;;;;;;;;;;;;;;;;;4948192;28;1424;-75
2022/09/18 10:48:40;;;;;;;;;;;;;;;;;;4946330;28;1475;-75
2022/09/18 10:51:06;;;;;;;;;;;;;;;;;;4965567;28;1440;-74
2022/09/18 10:53:43;;;;;;;;;;;;;;;;;;4938832;28;1470;-74
2022/09/18 10:56:26;;;;;;;;;;;;;;;;;;5004320;28;1397;-75
2022/09/18 10:58:56;;;;;;;;;;;;;;;;;;5015562;28;1910;-75
2022/09/18 11:01:24;;;;;;;;;;;;;;;;;;4949439;29;1043;-74
2022/09/18 11:03:59;;;;;;;;;;;;;;;;;;5048756;28;1475;-74
2022/09/18 11:06:28;;;;;;;;;;;;;;;;;;5015567;28;1431;-74
2022/09/18 11:08:58;;;;;;;;;;;;;;;;;;5015710;28;1286;-75
2022/09/18 11:11:25;;;;;;;;;;;;;;;;;;5050841;28;1245;-75
2022/09/18 11:13:53;;;;;;;;;;;;;;;;;;5019270;28;1464;-75
2022/09/18 11:16:25;;;;;;;;;;;;;;;;;;5051808;28;1484;-75
2022/09/18 11:19:13;;;;;;;;;;;;;;;;;;5052263;28;1918;-74
2022/09/18 11:21:44;;;;;;;;;;;;;;;;;;5016585;28;1621;-73
2022/09/18 11:24:16;;;;;;;;;;;;;;;;;;5019365;28;1456;-75
2022/09/18 11:26:48;;;;;;;;;;;;;;;;;;5019154;28;1293;-74
2022/09/18 11:29:16;;;;;;;;;;;;;;;;;;5019218;28;1397;-75
2022/09/18 11:31:46;;;;;;;;;;;;;;;;;;5052341;28;1592;-75
2022/09/18 11:34:20;;;;;;;;;;;;;;;;;;5019117;28;996;-75
2022/09/18 11:36:48;;;;;;;;;;;;;;;;;;5019056;28;1257;-76
2022/09/18 11:39:15;;;;;;;;;;;;;;;;;;5052807;28;1922;-75
2022/09/18 11:41:42;;;;;;;;;;;;;;;;;;5018331;28;1476;-75
2022/09/18 11:44:11;;;;;;;;;;;;;;;;;;5018723;28;1625;-75
2022/09/18 11:46:42;;;;;;;;;;;;;;;;;;5018707;28;1247;-75
2022/09/18 11:49:11;;;;;;;;;;;;;;;;;;5018669;28;1735;-75
2022/09/18 11:51:40;;;;;;;;;;;;;;;;;;5018516;28;1296;-76
2022/09/18 11:54:07;;;;;;;;;;;;;;;;;;5018917;28;1199;-76
2022/09/18 11:56:35;;;;;;;;;;;;;;;;;;5018744;28;838;-75
2022/09/18 11:59:03;;;;;;;;;;;;;;;;;;5051571;28;1989;-76
2022/09/18 12:01:32;;;;;;;;;;;;;;;;;;5051906;28;1598;-77
2022/09/18 12:04:00;;;;;;;;;;;;;;;;;;5018513;28;1343;-75
2022/09/18 12:06:31;;;;;;;;;;;;;;;;;;5018414;28;1467;-76
2022/09/18 12:08:59;;;;;;;;;;;;;;;;;;5051667;28;1365;-76
2022/09/18 12:11:27;;;;;;;;;;;;;;;;;;5017859;28;1350;-77
2022/09/18 12:13:55;;;;;;;;;;;;;;;;;;5018291;28;1264;-76
2022/09/18 12:16:23;;;;;;;;;;;;;;;;;;5018338;28;1681;-76
2022/09/18 12:18:52;;;;;;;;;;;;;;;;;;4951543;28;1906;-76
2022/09/18 12:21:20;;;;;;;;;;;;;;;;;;5051000;28;1274;-76
2022/09/18 12:23:48;;;;;;;;;;;;;;;;;;5051694;28;1379;-75
2022/09/18 12:26:21;;;;;;;;;;;;;;;;;;5017909;28;1202;-75
2022/09/18 12:28:57;;;;;;;;;;;;;;;;;;5016931;28;1411;-75
2022/09/18 12:31:25;;;;;;;;;;;;;;;;;;4951578;28;803;-75
2022/09/18 12:33:54;;;;;;;;;;;;;;;;;;4951589;29;1088;-75
2022/09/18 12:36:33;;;;;;;;;;;;;;;;;;4951759;29;1181;-75
2022/09/18 12:39:03;;;;;;;;;;;;;;;;;;4951581;28;1979;-76
2022/09/18 12:41:39;;;;;;;;;;;;;;;;;;4951415;29;972;-76
2022/09/18 12:44:24;;;;;;;;;;;;;;;;;;5051194;28;1452;-75
2022/09/18 12:46:53;;;;;;;;;;;;;;;;;;4951689;29;614;-75
2022/09/18 12:49:23;;;;;;;;;;;;;;;;;;5017625;28;1475;-76
2022/09/18 12:51:50;;;;;;;;;;;;;;;;;;4969309;28;1489;-76
2022/09/18 12:54:23;;;;;;;;;;;;;;;;;;4968643;28;1080;-77
2022/09/18 12:56:52;;;;;;;;;;;;;;;;;;4970255;28;906;-76
2022/09/18 12:59:24;;;;;;;;;;;;;;;;;;4970319;28;1970;-75
2022/09/18 13:01:51;;;;;;;;;;;;;;;;;;4970080;28;1115;-76
2022/09/18 13:04:19;;;;;;;;;;;;;;;;;;4969582;28;946;-75
2022/09/18 13:06:46;;;;;;;;;;;;;;;;;;4969354;28;811;-75
2022/09/18 13:09:17;;;;;;;;;;;;;;;;;;4952054;28;1433;-76
2022/09/18 13:11:45;;;;;;;;;;;;;;;;;;4967904;28;767;-76
2022/09/18 13:14:11;;;;;;;;;;;;;;;;;;4950964;28;1509;-76
2022/09/18 13:16:39;;;;;;;;;;;;;;;;;;4949391;28;893;-75
2022/09/18 13:19:07;;;;;;;;;;;;;;;;;;4969159;28;1929;-76
2022/09/18 13:21:34;;;;;;;;;;;;;;;;;;4969934;28;811;-76
2022/09/18 13:24:01;;;;;;;;;;;;;;;;;;4968661;28;929;-76
2022/09/18 13:26:27;;;;;;;;;;;;;;;;;;4968838;28;914;-76
2022/09/18 13:28:55;;;;;;;;;;;;;;;;;;4969860;28;1324;-76
2022/09/18 13:31:23;;;;;;;;;;;;;;;;;;4970212;28;1093;-75
2022/09/18 13:33:50;;;;;;;;;;;;;;;;;;4969617;28;969;-75
2022/09/18 13:36:21;;;;;;;;;;;;;;;;;;4970921;28;1135;-76
2022/09/18 13:38:47;;;;;;;;;;;;;;;;;;4969992;28;1942;-74
2022/09/18 13:41:13;;;;;;;;;;;;;;;;;;4967817;28;962;-74
2022/09/18 13:43:40;;;;;;;;;;;;;;;;;;4968328;28;1121;-76
2022/09/18 13:46:08;;;;;;;;;;;;;;;;;;4970238;28;1116;-76
2022/09/18 13:48:35;;;;;;;;;;;;;;;;;;4970825;28;1320;-75
2022/09/18 13:51:02;;;;;;;;;;;;;;;;;;4968973;28;1063;-75
2022/09/18 13:53:34;;;;;;;;;;;;;;;;;;4969853;28;1088;-75
2022/09/18 13:56:00;;;;;;;;;;;;;;;;;;4969580;28;1142;-75
2022/09/18 13:58:36;;;;;;;;;;;;;;;;;;4970608;28;1964;-75
2022/09/18 14:01:03;;;;;;;;;;;;;;;;;;4969864;28;1119;-75
2022/09/18 14:03:37;;;;;;;;;;;;;;;;;;4952845;28;1344;-76
2022/09/18 14:06:18;;;;;;;;;;;;;;;;;;4974082;28;1391;-76
2022/09/18 14:08:45;;;;;;;;;;;;;;;;;;4947952;28;1572;-76
2022/09/18 14:11:11;;;;;;;;;;;;;;;;;;4960719;28;1471;-76
2022/09/18 14:13:38;;;;;;;;;;;;;;;;;;4963225;28;1610;-76
2022/09/18 14:16:07;;;;;;;;;;;;;;;;;;4955189;28;1416;-76
2022/09/18 14:18:34;;;;;;;;;;;;;;;;;;4960419;28;1911;-74
2022/09/18 14:21:13;;;;;;;;;;;;;;;;;;4957142;28;1449;-75
2022/09/18 14:23:50;;;;;;;;;;;;;;;;;;4968609;28;837;-76
2022/09/18 14:26:32;;;;;;;;;;;;;;;;;;4968299;28;1116;-75
2022/09/18 14:29:00;;;;;;;;;;;;;;;;;;4968815;28;1479;-75
2022/09/18 14:31:45;;;;;;;;;;;;;;;;;;5109842;27;1422;-76
2022/09/18 14:34:12;;;;;;;;;;;;;;;;;;5109428;28;1168;-75
2022/09/18 14:36:42;;;;;;;;;;;;;;;;;;5108438;28;1425;-75
2022/09/18 14:39:21;;;;;;;;;;;;;;;;;;5093977;28;1476;-75
2022/09/18 14:41:47;;;;;;;;;;;;;;;;;;5088461;28;1075;-75
2022/09/18 14:44:14;;;;;;;;;;;;;;;;;;5087541;28;1255;-75
2022/09/18 14:46:53;;;;;;;;;;;;;;;;;;5080813;28;1466;-75
2022/09/18 14:49:26;;;;;;;;;;;;;;;;;;5077499;28;1913;-75
2022/09/18 14:51:52;;;;;;;;;;;;;;;;;;5086182;28;1426;-77
2022/09/18 14:54:20;;;;;;;;;;;;;;;;;;5080436;28;1369;-76
2022/09/18 14:56:46;;;;;;;;;;;;;;;;;;5079848;28;1249;-76
2022/09/18 14:59:13;;;;;;;;;;;;;;;;;;5077910;28;1494;-78
2022/09/18 15:01:40;;;;;;;;;;;;;;;;;;5086185;28;1149;-78
2022/09/18 15:04:11;;;;;;;;;;;;;;;;;;5085819;28;949;-81
2022/09/18 15:06:38;;;;;;;;;;;;;;;;;;5087201;28;1130;-76
2022/09/18 15:09:04;;;;;;;;;;;;;;;;;;5077119;28;1419;-75
2022/09/18 15:11:30;;;;;;;;;;;;;;;;;;5084098;28;2035;-75
2022/09/18 15:13:57;;;;;;;;;;;;;;;;;;5085272;28;1119;-77
2022/09/18 15:16:25;;;;;;;;;;;;;;;;;;5079642;28;1381;-76
2022/09/18 15:18:52;;;;;;;;;;;;;;;;;;5080798;28;1484;-76
2022/09/18 15:21:23;;;;;;;;;;;;;;;;;;5083142;28;1527;-76
2022/09/18 15:23:49;;;;;;;;;;;;;;;;;;5070907;28;1420;-75
2022/09/18 15:26:16;;;;;;;;;;;;;;;;;;5084298;28;1122;-76
2022/09/18 15:28:43;;;;;;;;;;;;;;;;;;5085829;28;1426;-76
2022/09/18 15:31:10;;;;;;;;;;;;;;;;;;5092322;28;1899;-76
2022/09/18 15:33:37;;;;;;;;;;;;;;;;;;5106054;28;1132;-76
2022/09/18 15:36:03;;;;;;;;;;;;;;;;;;5087766;28;1175;-76
2022/09/18 15:38:33;;;;;;;;;;;;;;;;;;5105777;28;1412;-76
2022/09/18 15:41:00;;;;;;;;;;;;;;;;;;5094560;28;1417;-76
2022/09/18 15:43:39;;;;;;;;;;;;;;;;;;5091642;28;1067;-77
2022/09/18 15:46:06;;;;;;;;;;;;;;;;;;5090912;28;1143;-76
2022/09/18 15:48:33;;;;;;;;;;;;;;;;;;5091674;28;1302;-76
2022/09/18 15:51:05;;;;;;;;;;;;;;;;;;5105242;28;2011;-76
2022/09/18 15:53:32;;;;;;;;;;;;;;;;;;5085208;28;1146;-77
2022/09/18 15:56:00;;;;;;;;;;;;;;;;;;5092148;28;1247;-76
2022/09/18 15:58:50;;;;;;;;;;;;;;;;;;5091001;28;1392;-76
2022/09/18 16:01:17;;;;;;;;;;;;;;;;;;5096276;28;1386;-76
2022/09/18 16:03:43;;;;;;;;;;;;;;;;;;5074454;28;1298;-77
2022/09/18 16:06:18;;;;;;;;;;;;;;;;;;5090087;28;1477;-76
2022/09/18 16:08:45;;;;;;;;;;;;;;;;;;5093653;28;1400;-76
2022/09/18 16:11:14;;;;;;;;;;;;;;;;;;5088305;28;1922;-77
2022/09/18 16:13:40;;;;;;;;;;;;;;;;;;5079724;28;1396;-75
2022/09/18 16:16:14;;;;;;;;;;;;;;;;;;5091469;28;1110;-76
2022/09/18 16:18:47;;;;;;;;;;;;;;;;;;5090174;28;1409;-76
2022/09/18 16:21:14;;;;;;;;;;;;;;;;;;5082907;28;1097;-75
2022/09/18 16:23:47;;;;;;;;;;;;;;;;;;5090213;28;1293;-73
2022/09/18 16:26:14;;;;;;;;;;;;;;;;;;5090193;28;1067;-76
2022/09/18 16:28:41;;;;;;;;;;;;;;;;;;5092368;28;1417;-78
2022/09/18 16:31:07;;;;;;;;;;;;;;;;;;5105521;27;1905;-78
2022/09/18 16:33:34;;;;;;;;;;;;;;;;;;5062943;28;1381;-78
2022/09/18 16:36:01;;;;;;;;;;;;;;;;;;5105486;27;1407;-76
2022/09/18 16:38:27;;;;;;;;;;;;;;;;;;5065176;28;1409;-76
2022/09/18 16:40:55;;;;;;;;;;;;;;;;;;5090161;28;1397;-75
2022/09/18 16:43:21;;;;;;;;;;;;;;;;;;5094756;28;1394;-76
2022/09/18 16:45:50;;;;;;;;;;;;;;;;;;5090875;28;1299;-76
2022/09/18 16:48:17;;;;;;;;;;;;;;;;;;5093138;28;1400;-76
2022/09/18 16:50:43;;;;;;;;;;;;;;;;;;5090795;28;1910;-76
2022/09/18 16:53:10;;;;;;;;;;;;;;;;;;5089884;28;1016;-76
2022/09/18 16:55:36;;;;;;;;;;;;;;;;;;5081903;28;1456;-76
2022/09/18 16:58:04;;;;;;;;;;;;;;;;;;5084983;28;1481;-77
2022/09/18 17:00:30;;;;;;;;;;;;;;;;;;5090906;28;1122;-77
2022/09/18 17:02:57;;;;;;;;;;;;;;;;;;5072037;28;1476;-78
2022/09/18 17:05:23;;;;;;;;;;;;;;;;;;5087569;28;1283;-78
2022/09/18 17:07:49;;;;;;;;;;;;;;;;;;5053115;28;1360;-77
2022/09/18 17:10:15;;;;;;;;;;;;;;;;;;5077149;28;1980;-78
2022/09/18 17:12:41;;;;;;;;;;;;;;;;;;5090901;28;1247;-76
2022/09/18 17:15:09;;;;;;;;;;;;;;;;;;5090537;28;1014;-75
2022/09/18 17:17:35;;;;;;;;;;;;;;;;;;5071194;28;1421;-75
2022/09/18 17:20:02;;;;;;;;;;;;;;;;;;5097422;28;1453;-75
2022/09/18 17:22:29;;;;;;;;;;;;;;;;;;5082510;28;1369;-75